sensor_id;sensor_type;location;lat;lon;timestamp;temperature;humidity
22112;DHT22;11222;50.872;4.312;2023-11-25T00:01:02;6.40;99.90
22112;DHT22;11222;50.872;4.312;2023-11-25T00:03:28;6.40;99.90
22112;DHT22;11222;50.872;4.312;2023-11-25T00:05:53;6.40;99.90
22112;DHT22;11222;50.872;4.312;2023-11-25T00:08:19;6.50;99.90
22112;DHT22;11222;50.872;4.312;2023-11-25T00:10:46;6.60;99.90
22112;DHT22;11222;50.872;4.312;2023-11-25T00:13:12;6.50;99.90
22112;DHT22;11222;50.872;4.312;2023-11-25T00:15:40;6.40;99.90
22112;DHT22;11222;50.872;4.312;2023-11-25T00:18:06;6.30;99.90
22112;DHT22;11222;50.872;4.312;2023-11-25T00:20:31;6.20;99.90
22112;DHT22;11222;50.872;4.312;2023-11-25T00:22:57;6.20;99.90
22112;DHT22;11222;50.872;4.312;2023-11-25T00:25:22;6.20;99.90
22112;DHT22;11222;50.872;4.312;2023-11-25T00:27:52;6.20;99.90
22112;DHT22;11222;50.872;4.312;2023-11-25T00:30:18;6.10;99.90
22112;DHT22;11222;50.872;4.312;2023-11-25T00:32:44;6.10;99.90
22112;DHT22;11222;50.872;4.312;2023-11-25T00:35:09;6.10;99.90
22112;DHT22;11222;50.872;4.312;2023-11-25T00:37:36;6.00;99.90
22112;DHT22;11222;50.872;4.312;2023-11-25T00:40:02;5.90;99.90
22112;DHT22;11222;50.872;4.312;2023-11-25T00:42:30;5.90;99.90
22112;DHT22;11222;50.872;4.312;2023-11-25T00:44:56;5.90;99.90
22112;DHT22;11222;50.872;4.312;2023-11-25T00:47:21;6.00;99.90
22112;DHT22;11222;50.872;4.312;2023-11-25T00:49:49;6.10;99.90
22112;DHT22;11222;50.872;4.312;2023-11-25T00:52:15;6.10;99.90
22112;DHT22;11222;50.872;4.312;2023-11-25T00:54:40;6.10;99.90
22112;DHT22;11222;50.872;4.312;2023-11-25T00:57:06;6.10;99.90
22112;DHT22;11222;50.872;4.312;2023-11-25T00:59:31;6.00;99.90
22112;DHT22;11222;50.872;4.312;2023-11-25T01:01:57;6.00;99.90
22112;DHT22;11222;50.872;4.312;2023-11-25T01:04:23;6.00;99.90
22112;DHT22;11222;50.872;4.312;2023-11-25T01:06:48;6.10;99.90
22112;DHT22;11222;50.872;4.312;2023-11-25T01:09:15;6.00;99.90
22112;DHT22;11222;50.872;4.312;2023-11-25T01:11:42;6.00;99.90
22112;DHT22;11222;50.872;4.312;2023-11-25T01:14:08;6.00;99.90
22112;DHT22;11222;50.872;4.312;2023-11-25T01:16:34;6.10;99.90
22112;DHT22;11222;50.872;4.312;2023-11-25T01:18:59;6.10;99.90
22112;DHT22;11222;50.872;4.312;2023-11-25T01:21:25;6.10;99.90
22112;DHT22;11222;50.872;4.312;2023-11-25T01:23:51;6.10;99.90
22112;DHT22;11222;50.872;4.312;2023-11-25T01:26:16;6.00;99.90
22112;DHT22;11222;50.872;4.312;2023-11-25T01:28:43;6.00;99.90
22112;DHT22;11222;50.872;4.312;2023-11-25T01:31:09;5.90;99.90
22112;DHT22;11222;50.872;4.312;2023-11-25T01:33:38;5.90;99.90
22112;DHT22;11222;50.872;4.312;2023-11-25T01:36:03;5.90;99.90
22112;DHT22;11222;50.872;4.312;2023-11-25T01:38:29;5.80;99.90
22112;DHT22;11222;50.872;4.312;2023-11-25T01:40:55;5.80;99.90
22112;DHT22;11222;50.872;4.312;2023-11-25T01:43:24;5.70;99.90
22112;DHT22;11222;50.872;4.312;2023-11-25T01:45:51;5.60;99.90
22112;DHT22;11222;50.872;4.312;2023-11-25T01:48:17;5.60;99.90
22112;DHT22;11222;50.872;4.312;2023-11-25T01:50:43;5.50;99.90
22112;DHT22;11222;50.872;4.312;2023-11-25T01:53:11;5.50;99.90
22112;DHT22;11222;50.872;4.312;2023-11-25T01:55:39;5.40;99.90
22112;DHT22;11222;50.872;4.312;2023-11-25T01:58:05;5.40;99.90
22112;DHT22;11222;50.872;4.312;2023-11-25T02:00:32;5.40;99.90
22112;DHT22;11222;50.872;4.312;2023-11-25T02:02:59;5.30;99.90
22112;DHT22;11222;50.872;4.312;2023-11-25T02:05:25;5.40;99.90
22112;DHT22;11222;50.872;4.312;2023-11-25T02:07:50;5.30;99.90
22112;DHT22;11222;50.872;4.312;2023-11-25T02:10:16;5.30;99.90
22112;DHT22;11222;50.872;4.312;2023-11-25T02:12:42;5.20;99.90
22112;DHT22;11222;50.872;4.312;2023-11-25T02:15:08;5.20;99.90
22112;DHT22;11222;50.872;4.312;2023-11-25T02:17:40;5.10;99.90
22112;DHT22;11222;50.872;4.312;2023-11-25T02:20:06;5.10;99.90
22112;DHT22;11222;50.872;4.312;2023-11-25T02:22:33;5.10;99.90
22112;DHT22;11222;50.872;4.312;2023-11-25T02:24:59;5.10;99.90
22112;DHT22;11222;50.872;4.312;2023-11-25T02:27:24;5.10;99.90
22112;DHT22;11222;50.872;4.312;2023-11-25T02:29:50;5.10;99.90
22112;DHT22;11222;50.872;4.312;2023-11-25T02:32:17;5.10;99.90
22112;DHT22;11222;50.872;4.312;2023-11-25T02:34:42;5.20;99.90
22112;DHT22;11222;50.872;4.312;2023-11-25T02:37:08;5.30;99.90
22112;DHT22;11222;50.872;4.312;2023-11-25T02:39:33;5.20;99.90
22112;DHT22;11222;50.872;4.312;2023-11-25T02:41:59;5.20;99.90
22112;DHT22;11222;50.872;4.312;2023-11-25T02:44:25;5.30;99.90
22112;DHT22;11222;50.872;4.312;2023-11-25T02:46:52;5.30;99.90
22112;DHT22;11222;50.872;4.312;2023-11-25T02:49:19;5.30;99.90
22112;DHT22;11222;50.872;4.312;2023-11-25T02:51:48;5.40;99.90
22112;DHT22;11222;50.872;4.312;2023-11-25T02:54:14;5.50;99.90
22112;DHT22;11222;50.872;4.312;2023-11-25T02:56:40;5.50;99.90
22112;DHT22;11222;50.872;4.312;2023-11-25T02:59:05;5.50;99.90
22112;DHT22;11222;50.872;4.312;2023-11-25T03:01:33;5.50;99.90
22112;DHT22;11222;50.872;4.312;2023-11-25T03:03:59;5.40;99.90
22112;DHT22;11222;50.872;4.312;2023-11-25T03:06:29;5.40;99.90
22112;DHT22;11222;50.872;4.312;2023-11-25T03:08:56;5.30;99.90
22112;DHT22;11222;50.872;4.312;2023-11-25T03:11:22;5.30;99.90
22112;DHT22;11222;50.872;4.312;2023-11-25T03:13:48;5.30;99.90
22112;DHT22;11222;50.872;4.312;2023-11-25T03:16:14;5.30;99.90
22112;DHT22;11222;50.872;4.312;2023-11-25T03:18:40;5.30;99.90
22112;DHT22;11222;50.872;4.312;2023-11-25T03:21:06;5.20;99.90
22112;DHT22;11222;50.872;4.312;2023-11-25T03:23:31;5.10;99.90
22112;DHT22;11222;50.872;4.312;2023-11-25T03:25:57;5.10;99.90
22112;DHT22;11222;50.872;4.312;2023-11-25T03:28:22;5.10;99.90
22112;DHT22;11222;50.872;4.312;2023-11-25T03:30:49;5.10;99.90
22112;DHT22;11222;50.872;4.312;2023-11-25T03:33:16;5.10;99.90
22112;DHT22;11222;50.872;4.312;2023-11-25T03:35:41;5.10;99.90
22112;DHT22;11222;50.872;4.312;2023-11-25T03:38:07;5.10;99.90
22112;DHT22;11222;50.872;4.312;2023-11-25T03:40:33;5.10;99.90
22112;DHT22;11222;50.872;4.312;2023-11-25T03:42:59;5.10;99.90
22112;DHT22;11222;50.872;4.312;2023-11-25T03:45:25;5.10;99.90
22112;DHT22;11222;50.872;4.312;2023-11-25T03:47:51;5.10;99.90
22112;DHT22;11222;50.872;4.312;2023-11-25T03:50:18;5.10;99.90
22112;DHT22;11222;50.872;4.312;2023-11-25T03:52:44;5.10;99.90
22112;DHT22;11222;50.872;4.312;2023-11-25T03:55:10;5.10;99.90
22112;DHT22;11222;50.872;4.312;2023-11-25T03:57:36;5.10;99.90
22112;DHT22;11222;50.872;4.312;2023-11-25T04:00:03;5.00;99.90
22112;DHT22;11222;50.872;4.312;2023-11-25T04:02:28;5.00;99.90
22112;DHT22;11222;50.872;4.312;2023-11-25T04:04:54;5.00;99.90
22112;DHT22;11222;50.872;4.312;2023-11-25T04:07:20;5.00;99.90
22112;DHT22;11222;50.872;4.312;2023-11-25T04:09:45;5.10;99.90
22112;DHT22;11222;50.872;4.312;2023-11-25T04:12:11;5.30;99.90
22112;DHT22;11222;50.872;4.312;2023-11-25T04:14:36;5.30;99.90
22112;DHT22;11222;50.872;4.312;2023-11-25T04:17:02;5.30;99.90
22112;DHT22;11222;50.872;4.312;2023-11-25T04:19:28;5.30;99.90
22112;DHT22;11222;50.872;4.312;2023-11-25T04:21:55;5.40;99.90
22112;DHT22;11222;50.872;4.312;2023-11-25T04:24:24;5.30;99.90
22112;DHT22;11222;50.872;4.312;2023-11-25T04:26:52;5.30;99.90
22112;DHT22;11222;50.872;4.312;2023-11-25T04:29:18;5.30;99.90
22112;DHT22;11222;50.872;4.312;2023-11-25T04:31:45;5.40;99.90
22112;DHT22;11222;50.872;4.312;2023-11-25T04:34:10;5.40;99.90
22112;DHT22;11222;50.872;4.312;2023-11-25T04:36:36;5.40;99.90
22112;DHT22;11222;50.872;4.312;2023-11-25T04:39:04;5.40;99.90
22112;DHT22;11222;50.872;4.312;2023-11-25T04:41:30;5.30;99.90
22112;DHT22;11222;50.872;4.312;2023-11-25T04:43:56;5.30;99.90
22112;DHT22;11222;50.872;4.312;2023-11-25T04:46:21;5.30;99.90
22112;DHT22;11222;50.872;4.312;2023-11-25T04:48:47;5.30;99.90
22112;DHT22;11222;50.872;4.312;2023-11-25T04:51:13;5.20;99.90
22112;DHT22;11222;50.872;4.312;2023-11-25T04:53:46;5.20;99.90
22112;DHT22;11222;50.872;4.312;2023-11-25T04:56:12;5.10;99.90
22112;DHT22;11222;50.872;4.312;2023-11-25T04:58:38;5.10;99.90
22112;DHT22;11222;50.872;4.312;2023-11-25T05:01:05;5.10;99.90
22112;DHT22;11222;50.872;4.312;2023-11-25T05:03:31;5.10;99.90
22112;DHT22;11222;50.872;4.312;2023-11-25T05:05:58;5.10;99.90
22112;DHT22;11222;50.872;4.312;2023-11-25T05:08:27;5.00;99.90
22112;DHT22;11222;50.872;4.312;2023-11-25T05:10:53;5.00;99.90
22112;DHT22;11222;50.872;4.312;2023-11-25T05:13:18;4.90;99.90
22112;DHT22;11222;50.872;4.312;2023-11-25T05:15:44;4.90;99.90
22112;DHT22;11222;50.872;4.312;2023-11-25T05:18:10;5.00;99.90
22112;DHT22;11222;50.872;4.312;2023-11-25T05:20:36;5.10;99.90
22112;DHT22;11222;50.872;4.312;2023-11-25T05:23:01;5.10;99.90
22112;DHT22;11222;50.872;4.312;2023-11-25T05:25:27;5.20;99.90
22112;DHT22;11222;50.872;4.312;2023-11-25T05:27:53;5.20;99.90
22112;DHT22;11222;50.872;4.312;2023-11-25T05:30:18;5.40;99.90
22112;DHT22;11222;50.872;4.312;2023-11-25T05:32:45;5.40;99.90
22112;DHT22;11222;50.872;4.312;2023-11-25T05:35:11;5.40;99.90
22112;DHT22;11222;50.872;4.312;2023-11-25T05:37:38;5.30;99.90
22112;DHT22;11222;50.872;4.312;2023-11-25T05:40:06;5.30;99.90
22112;DHT22;11222;50.872;4.312;2023-11-25T05:42:34;5.40;99.90
22112;DHT22;11222;50.872;4.312;2023-11-25T05:45:03;5.50;99.90
22112;DHT22;11222;50.872;4.312;2023-11-25T05:47:29;5.60;99.90
22112;DHT22;11222;50.872;4.312;2023-11-25T05:49:55;5.70;99.90
22112;DHT22;11222;50.872;4.312;2023-11-25T05:52:20;5.70;99.90
22112;DHT22;11222;50.872;4.312;2023-11-25T05:54:46;5.60;99.90
22112;DHT22;11222;50.872;4.312;2023-11-25T05:57:12;5.50;99.90
22112;DHT22;11222;50.872;4.312;2023-11-25T05:59:39;5.50;99.90
22112;DHT22;11222;50.872;4.312;2023-11-25T06:02:04;5.50;99.90
22112;DHT22;11222;50.872;4.312;2023-11-25T06:04:30;5.40;99.90
22112;DHT22;11222;50.872;4.312;2023-11-25T06:06:55;5.40;99.90
22112;DHT22;11222;50.872;4.312;2023-11-25T06:09:21;5.40;99.90
22112;DHT22;11222;50.872;4.312;2023-11-25T06:11:46;5.50;99.90
22112;DHT22;11222;50.872;4.312;2023-11-25T06:14:16;5.50;99.90
22112;DHT22;11222;50.872;4.312;2023-11-25T06:16:45;5.40;99.90
22112;DHT22;11222;50.872;4.312;2023-11-25T06:19:10;5.30;99.90
22112;DHT22;11222;50.872;4.312;2023-11-25T06:21:37;5.10;99.90
22112;DHT22;11222;50.872;4.312;2023-11-25T06:24:03;5.10;99.90
22112;DHT22;11222;50.872;4.312;2023-11-25T06:26:29;5.10;99.90
22112;DHT22;11222;50.872;4.312;2023-11-25T06:28:55;5.10;99.90
22112;DHT22;11222;50.872;4.312;2023-11-25T06:31:20;5.10;99.90
22112;DHT22;11222;50.872;4.312;2023-11-25T06:33:46;5.20;99.90
22112;DHT22;11222;50.872;4.312;2023-11-25T06:36:12;5.40;99.90
22112;DHT22;11222;50.872;4.312;2023-11-25T06:38:38;5.40;99.90
22112;DHT22;11222;50.872;4.312;2023-11-25T06:41:05;5.30;99.90
22112;DHT22;11222;50.872;4.312;2023-11-25T06:43:32;5.20;99.90
22112;DHT22;11222;50.872;4.312;2023-11-25T06:45:58;5.20;99.90
22112;DHT22;11222;50.872;4.312;2023-11-25T06:48:25;5.10;99.90
22112;DHT22;11222;50.872;4.312;2023-11-25T06:50:51;5.10;99.90
22112;DHT22;11222;50.872;4.312;2023-11-25T06:53:17;5.00;99.90
22112;DHT22;11222;50.872;4.312;2023-11-25T06:55:42;5.00;99.90
22112;DHT22;11222;50.872;4.312;2023-11-25T06:58:10;5.00;99.90
22112;DHT22;11222;50.872;4.312;2023-11-25T07:00:45;5.10;99.90
22112;DHT22;11222;50.872;4.312;2023-11-25T07:03:11;5.10;99.90
22112;DHT22;11222;50.872;4.312;2023-11-25T07:05:39;5.10;99.90
22112;DHT22;11222;50.872;4.312;2023-11-25T07:08:04;5.10;99.90
22112;DHT22;11222;50.872;4.312;2023-11-25T07:10:33;5.10;99.90
22112;DHT22;11222;50.872;4.312;2023-11-25T07:13:03;5.20;99.90
22112;DHT22;11222;50.872;4.312;2023-11-25T07:15:29;5.10;99.90
22112;DHT22;11222;50.872;4.312;2023-11-25T07:17:55;5.20;99.90
22112;DHT22;11222;50.872;4.312;2023-11-25T07:20:20;5.20;99.90
22112;DHT22;11222;50.872;4.312;2023-11-25T07:22:46;5.20;99.90
22112;DHT22;11222;50.872;4.312;2023-11-25T07:25:12;5.30;99.90
22112;DHT22;11222;50.872;4.312;2023-11-25T07:27:38;5.40;99.90
22112;DHT22;11222;50.872;4.312;2023-11-25T07:30:05;5.50;99.90
22112;DHT22;11222;50.872;4.312;2023-11-25T07:32:31;5.70;99.90
22112;DHT22;11222;50.872;4.312;2023-11-25T07:34:57;5.80;99.90
22112;DHT22;11222;50.872;4.312;2023-11-25T07:37:22;5.90;99.90
22112;DHT22;11222;50.872;4.312;2023-11-25T07:39:48;5.90;99.90
22112;DHT22;11222;50.872;4.312;2023-11-25T07:42:14;5.90;99.90
22112;DHT22;11222;50.872;4.312;2023-11-25T07:44:39;5.90;99.90
22112;DHT22;11222;50.872;4.312;2023-11-25T07:47:05;5.80;99.90
22112;DHT22;11222;50.872;4.312;2023-11-25T07:49:31;5.70;99.90
22112;DHT22;11222;50.872;4.312;2023-11-25T07:51:57;5.60;99.90
22112;DHT22;11222;50.872;4.312;2023-11-25T07:54:22;5.60;99.90
22112;DHT22;11222;50.872;4.312;2023-11-25T07:56:49;5.50;99.90
22112;DHT22;11222;50.872;4.312;2023-11-25T07:59:15;5.50;99.90
22112;DHT22;11222;50.872;4.312;2023-11-25T08:01:40;5.50;99.90
22112;DHT22;11222;50.872;4.312;2023-11-25T08:04:06;5.60;99.90
22112;DHT22;11222;50.872;4.312;2023-11-25T08:06:32;5.80;99.90
22112;DHT22;11222;50.872;4.312;2023-11-25T08:08:57;5.90;99.90
22112;DHT22;11222;50.872;4.312;2023-11-25T08:11:23;5.90;99.90
22112;DHT22;11222;50.872;4.312;2023-11-25T08:13:49;5.90;99.90
22112;DHT22;11222;50.872;4.312;2023-11-25T08:16:15;5.90;99.90
22112;DHT22;11222;50.872;4.312;2023-11-25T08:18:41;6.00;99.90
22112;DHT22;11222;50.872;4.312;2023-11-25T08:21:06;6.00;99.90
22112;DHT22;11222;50.872;4.312;2023-11-25T08:23:32;6.00;99.90
22112;DHT22;11222;50.872;4.312;2023-11-25T08:25:58;6.00;99.90
22112;DHT22;11222;50.872;4.312;2023-11-25T08:28:23;6.00;99.90
22112;DHT22;11222;50.872;4.312;2023-11-25T08:30:50;6.10;99.90
22112;DHT22;11222;50.872;4.312;2023-11-25T08:33:16;6.20;99.90
22112;DHT22;11222;50.872;4.312;2023-11-25T08:35:41;6.10;99.90
22112;DHT22;11222;50.872;4.312;2023-11-25T08:38:08;6.10;99.90
22112;DHT22;11222;50.872;4.312;2023-11-25T08:40:33;6.10;99.90
22112;DHT22;11222;50.872;4.312;2023-11-25T08:43:00;6.00;99.90
22112;DHT22;11222;50.872;4.312;2023-11-25T08:45:36;6.00;99.90
22112;DHT22;11222;50.872;4.312;2023-11-25T08:48:02;6.00;99.90
22112;DHT22;11222;50.872;4.312;2023-11-25T08:50:28;5.90;99.90
22112;DHT22;11222;50.872;4.312;2023-11-25T08:52:54;6.00;99.90
22112;DHT22;11222;50.872;4.312;2023-11-25T08:55:20;6.00;99.90
22112;DHT22;11222;50.872;4.312;2023-11-25T08:57:47;6.10;99.90
22112;DHT22;11222;50.872;4.312;2023-11-25T09:00:13;6.20;99.90
22112;DHT22;11222;50.872;4.312;2023-11-25T09:02:44;6.30;99.90
22112;DHT22;11222;50.872;4.312;2023-11-25T09:05:11;6.40;99.90
22112;DHT22;11222;50.872;4.312;2023-11-25T09:07:40;6.30;99.90
22112;DHT22;11222;50.872;4.312;2023-11-25T09:10:07;6.20;99.90
22112;DHT22;11222;50.872;4.312;2023-11-25T09:12:33;6.20;99.90
22112;DHT22;11222;50.872;4.312;2023-11-25T09:14:59;6.20;99.90
22112;DHT22;11222;50.872;4.312;2023-11-25T09:17:25;6.20;99.90
22112;DHT22;11222;50.872;4.312;2023-11-25T09:19:51;6.30;99.90
22112;DHT22;11222;50.872;4.312;2023-11-25T09:22:16;6.40;99.90
22112;DHT22;11222;50.872;4.312;2023-11-25T09:24:42;6.50;99.90
22112;DHT22;11222;50.872;4.312;2023-11-25T09:27:09;6.60;99.90
22112;DHT22;11222;50.872;4.312;2023-11-25T09:29:39;6.70;99.90
22112;DHT22;11222;50.872;4.312;2023-11-25T09:32:07;6.80;99.90
22112;DHT22;11222;50.872;4.312;2023-11-25T09:34:32;6.90;99.90
22112;DHT22;11222;50.872;4.312;2023-11-25T09:36:59;6.70;99.90
22112;DHT22;11222;50.872;4.312;2023-11-25T09:39:25;6.70;99.90
22112;DHT22;11222;50.872;4.312;2023-11-25T09:41:50;6.80;99.90
22112;DHT22;11222;50.872;4.312;2023-11-25T09:44:16;6.90;99.90
22112;DHT22;11222;50.872;4.312;2023-11-25T09:46:43;7.00;99.90
22112;DHT22;11222;50.872;4.312;2023-11-25T09:49:09;7.10;99.90
22112;DHT22;11222;50.872;4.312;2023-11-25T09:51:35;7.20;99.90
22112;DHT22;11222;50.872;4.312;2023-11-25T09:54:04;7.20;99.90
22112;DHT22;11222;50.872;4.312;2023-11-25T09:56:36;7.30;99.90
22112;DHT22;11222;50.872;4.312;2023-11-25T09:59:02;7.20;99.90
22112;DHT22;11222;50.872;4.312;2023-11-25T10:01:28;7.10;99.90
22112;DHT22;11222;50.872;4.312;2023-11-25T10:03:55;7.20;99.90
22112;DHT22;11222;50.872;4.312;2023-11-25T10:06:21;7.40;99.90
22112;DHT22;11222;50.872;4.312;2023-11-25T10:08:47;7.30;99.90
22112;DHT22;11222;50.872;4.312;2023-11-25T10:11:13;7.20;99.90
22112;DHT22;11222;50.872;4.312;2023-11-25T10:13:43;7.10;99.90
22112;DHT22;11222;50.872;4.312;2023-11-25T10:16:09;7.30;99.90
22112;DHT22;11222;50.872;4.312;2023-11-25T10:18:38;7.40;99.90
22112;DHT22;11222;50.872;4.312;2023-11-25T10:21:04;7.50;99.90
22112;DHT22;11222;50.872;4.312;2023-11-25T10:23:31;7.50;99.90
22112;DHT22;11222;50.872;4.312;2023-11-25T10:25:57;7.60;99.90
22112;DHT22;11222;50.872;4.312;2023-11-25T10:28:28;7.60;99.90
22112;DHT22;11222;50.872;4.312;2023-11-25T10:31:01;7.60;99.90
22112;DHT22;11222;50.872;4.312;2023-11-25T10:33:27;7.50;99.90
22112;DHT22;11222;50.872;4.312;2023-11-25T10:35:56;7.40;99.90
22112;DHT22;11222;50.872;4.312;2023-11-25T10:38:21;7.20;99.90
22112;DHT22;11222;50.872;4.312;2023-11-25T10:40:50;7.10;99.90
22112;DHT22;11222;50.872;4.312;2023-11-25T10:43:19;7.30;99.90
22112;DHT22;11222;50.872;4.312;2023-11-25T10:45:45;7.50;99.90
22112;DHT22;11222;50.872;4.312;2023-11-25T10:48:11;7.50;99.90
22112;DHT22;11222;50.872;4.312;2023-11-25T10:50:41;7.50;99.90
22112;DHT22;11222;50.872;4.312;2023-11-25T10:53:08;7.30;99.90
22112;DHT22;11222;50.872;4.312;2023-11-25T10:55:37;7.20;99.90
22112;DHT22;11222;50.872;4.312;2023-11-25T10:58:02;7.20;99.90
22112;DHT22;11222;50.872;4.312;2023-11-25T11:00:30;7.30;99.90
22112;DHT22;11222;50.872;4.312;2023-11-25T11:03:00;7.20;99.90
22112;DHT22;11222;50.872;4.312;2023-11-25T11:08:07;7.20;99.90
22112;DHT22;11222;50.872;4.312;2023-11-25T11:10:41;7.40;99.90
22112;DHT22;11222;50.872;4.312;2023-11-25T11:13:10;7.50;99.90
22112;DHT22;11222;50.872;4.312;2023-11-25T11:15:37;7.50;99.90
22112;DHT22;11222;50.872;4.312;2023-11-25T11:18:08;7.50;99.90
22112;DHT22;11222;50.872;4.312;2023-11-25T11:20:41;7.80;99.90
22112;DHT22;11222;50.872;4.312;2023-11-25T11:23:08;8.20;99.90
22112;DHT22;11222;50.872;4.312;2023-11-25T11:28:50;8.10;99.90
22112;DHT22;11222;50.872;4.312;2023-11-25T11:33:54;7.70;99.90
22112;DHT22;11222;50.872;4.312;2023-11-25T11:36:20;7.70;99.90
22112;DHT22;11222;50.872;4.312;2023-11-25T11:38:46;7.60;99.90
22112;DHT22;11222;50.872;4.312;2023-11-25T11:43:39;7.50;99.90
22112;DHT22;11222;50.872;4.312;2023-11-25T11:46:04;7.60;99.90
22112;DHT22;11222;50.872;4.312;2023-11-25T11:48:30;7.80;99.90
22112;DHT22;11222;50.872;4.312;2023-11-25T11:50:56;8.10;99.90
22112;DHT22;11222;50.872;4.312;2023-11-25T11:53:23;8.30;99.90
22112;DHT22;11222;50.872;4.312;2023-11-25T11:55:56;8.30;99.90
22112;DHT22;11222;50.872;4.312;2023-11-25T11:58:26;8.50;99.90
22112;DHT22;11222;50.872;4.312;2023-11-25T12:03:29;8.80;99.90
22112;DHT22;11222;50.872;4.312;2023-11-25T12:05:57;8.80;99.90
22112;DHT22;11222;50.872;4.312;2023-11-25T12:08:23;8.80;99.90
22112;DHT22;11222;50.872;4.312;2023-11-25T12:10:50;8.80;99.90
22112;DHT22;11222;50.872;4.312;2023-11-25T12:15:56;8.80;99.90
22112;DHT22;11222;50.872;4.312;2023-11-25T12:18:25;8.70;99.90
22112;DHT22;11222;50.872;4.312;2023-11-25T12:20:51;8.80;99.90
22112;DHT22;11222;50.872;4.312;2023-11-25T12:23:17;8.70;99.90
22112;DHT22;11222;50.872;4.312;2023-11-25T12:25:45;8.70;99.90
22112;DHT22;11222;50.872;4.312;2023-11-25T12:28:11;8.50;99.90
22112;DHT22;11222;50.872;4.312;2023-11-25T12:30:37;8.30;99.90
22112;DHT22;11222;50.872;4.312;2023-11-25T12:33:03;8.20;99.90
22112;DHT22;11222;50.872;4.312;2023-11-25T12:35:32;8.20;99.90
22112;DHT22;11222;50.872;4.312;2023-11-25T12:37:57;8.10;99.90
22112;DHT22;11222;50.872;4.312;2023-11-25T12:40:23;8.10;99.90
22112;DHT22;11222;50.872;4.312;2023-11-25T12:42:50;8.20;99.90
22112;DHT22;11222;50.872;4.312;2023-11-25T12:45:48;8.20;99.90
22112;DHT22;11222;50.872;4.312;2023-11-25T12:48:08;8.20;99.90
22112;DHT22;11222;50.872;4.312;2023-11-25T12:50:35;8.30;99.90
22112;DHT22;11222;50.872;4.312;2023-11-25T12:53:04;8.30;99.90
22112;DHT22;11222;50.872;4.312;2023-11-25T12:55:37;8.30;99.90
22112;DHT22;11222;50.872;4.312;2023-11-25T12:58:15;8.20;99.90
22112;DHT22;11222;50.872;4.312;2023-11-25T13:03:11;8.20;99.90
22112;DHT22;11222;50.872;4.312;2023-11-25T13:05:37;8.20;99.90
22112;DHT22;11222;50.872;4.312;2023-11-25T13:08:19;8.20;99.90
22112;DHT22;11222;50.872;4.312;2023-11-25T13:10:45;8.10;99.90
22112;DHT22;11222;50.872;4.312;2023-11-25T13:13:11;8.00;99.90
22112;DHT22;11222;50.872;4.312;2023-11-25T13:15:36;8.00;99.90
22112;DHT22;11222;50.872;4.312;2023-11-25T13:18:02;8.00;99.90
22112;DHT22;11222;50.872;4.312;2023-11-25T13:20:28;8.10;99.90
22112;DHT22;11222;50.872;4.312;2023-11-25T13:22:53;8.10;99.90
22112;DHT22;11222;50.872;4.312;2023-11-25T13:25:19;8.20;99.90
22112;DHT22;11222;50.872;4.312;2023-11-25T13:27:46;8.10;99.90
22112;DHT22;11222;50.872;4.312;2023-11-25T13:30:13;8.20;99.90
22112;DHT22;11222;50.872;4.312;2023-11-25T13:32:38;8.10;99.90
22112;DHT22;11222;50.872;4.312;2023-11-25T13:35:04;8.00;99.90
22112;DHT22;11222;50.872;4.312;2023-11-25T13:37:31;7.80;99.90
22112;DHT22;11222;50.872;4.312;2023-11-25T13:39:56;7.70;99.90
22112;DHT22;11222;50.872;4.312;2023-11-25T13:42:22;7.50;99.90
22112;DHT22;11222;50.872;4.312;2023-11-25T13:44:47;7.50;99.90
22112;DHT22;11222;50.872;4.312;2023-11-25T13:47:13;7.50;99.90
22112;DHT22;11222;50.872;4.312;2023-11-25T13:49:38;7.50;99.90
22112;DHT22;11222;50.872;4.312;2023-11-25T13:52:04;7.50;99.90
22112;DHT22;11222;50.872;4.312;2023-11-25T13:54:31;7.40;99.90
22112;DHT22;11222;50.872;4.312;2023-11-25T13:56:56;7.50;99.90
22112;DHT22;11222;50.872;4.312;2023-11-25T13:59:22;7.40;99.90
22112;DHT22;11222;50.872;4.312;2023-11-25T14:01:48;7.30;99.90
22112;DHT22;11222;50.872;4.312;2023-11-25T14:04:14;7.30;99.90
22112;DHT22;11222;50.872;4.312;2023-11-25T14:06:39;7.30;99.90
22112;DHT22;11222;50.872;4.312;2023-11-25T14:09:05;7.40;99.90
22112;DHT22;11222;50.872;4.312;2023-11-25T14:11:30;7.40;99.90
22112;DHT22;11222;50.872;4.312;2023-11-25T14:13:57;7.40;99.90
22112;DHT22;11222;50.872;4.312;2023-11-25T14:16:22;7.50;99.90
22112;DHT22;11222;50.872;4.312;2023-11-25T14:18:49;7.40;99.90
22112;DHT22;11222;50.872;4.312;2023-11-25T14:21:15;7.40;99.90
22112;DHT22;11222;50.872;4.312;2023-11-25T14:23:40;7.30;99.90
22112;DHT22;11222;50.872;4.312;2023-11-25T14:26:06;7.20;99.90
22112;DHT22;11222;50.872;4.312;2023-11-25T14:28:31;7.20;99.90
22112;DHT22;11222;50.872;4.312;2023-11-25T14:30:57;7.20;99.90
22112;DHT22;11222;50.872;4.312;2023-11-25T14:33:22;7.10;99.90
22112;DHT22;11222;50.872;4.312;2023-11-25T14:35:49;7.20;99.90
22112;DHT22;11222;50.872;4.312;2023-11-25T14:38:14;7.10;99.90
22112;DHT22;11222;50.872;4.312;2023-11-25T14:40:40;7.10;99.90
22112;DHT22;11222;50.872;4.312;2023-11-25T14:43:05;7.00;99.90
22112;DHT22;11222;50.872;4.312;2023-11-25T14:45:31;7.10;99.90
22112;DHT22;11222;50.872;4.312;2023-11-25T14:47:56;7.20;99.90
22112;DHT22;11222;50.872;4.312;2023-11-25T14:50:22;7.20;99.90
22112;DHT22;11222;50.872;4.312;2023-11-25T14:52:47;7.40;99.90
22112;DHT22;11222;50.872;4.312;2023-11-25T14:55:13;7.40;99.90
22112;DHT22;11222;50.872;4.312;2023-11-25T14:57:39;7.40;99.90
22112;DHT22;11222;50.872;4.312;2023-11-25T15:00:06;7.30;99.90
22112;DHT22;11222;50.872;4.312;2023-11-25T15:02:33;7.20;99.90
22112;DHT22;11222;50.872;4.312;2023-11-25T15:04:59;7.10;99.90
22112;DHT22;11222;50.872;4.312;2023-11-25T15:07:24;7.10;99.90
22112;DHT22;11222;50.872;4.312;2023-11-25T15:09:50;7.00;99.90
22112;DHT22;11222;50.872;4.312;2023-11-25T15:12:15;7.00;99.90
22112;DHT22;11222;50.872;4.312;2023-11-25T15:14:42;6.90;99.90
22112;DHT22;11222;50.872;4.312;2023-11-25T15:17:07;6.90;99.90
22112;DHT22;11222;50.872;4.312;2023-11-25T15:19:33;6.80;99.90
22112;DHT22;11222;50.872;4.312;2023-11-25T15:21:58;6.80;99.90
22112;DHT22;11222;50.872;4.312;2023-11-25T15:24:24;6.80;99.90
22112;DHT22;11222;50.872;4.312;2023-11-25T15:26:51;6.70;99.90
22112;DHT22;11222;50.872;4.312;2023-11-25T15:29:17;6.70;99.90
22112;DHT22;11222;50.872;4.312;2023-11-25T15:31:43;6.70;99.90
22112;DHT22;11222;50.872;4.312;2023-11-25T15:34:09;6.70;99.90
22112;DHT22;11222;50.872;4.312;2023-11-25T15:36:36;6.80;99.90
22112;DHT22;11222;50.872;4.312;2023-11-25T15:39:02;6.90;99.90
22112;DHT22;11222;50.872;4.312;2023-11-25T15:41:32;6.90;99.90
22112;DHT22;11222;50.872;4.312;2023-11-25T15:43:57;6.80;99.90
22112;DHT22;11222;50.872;4.312;2023-11-25T15:46:23;6.70;99.90
22112;DHT22;11222;50.872;4.312;2023-11-25T15:48:49;6.60;99.90
22112;DHT22;11222;50.872;4.312;2023-11-25T15:51:14;6.60;99.90
22112;DHT22;11222;50.872;4.312;2023-11-25T15:53:40;6.50;99.90
22112;DHT22;11222;50.872;4.312;2023-11-25T15:56:06;6.60;99.90
22112;DHT22;11222;50.872;4.312;2023-11-25T15:58:32;6.60;99.90